sensor_id;sensor_type;location;lat;lon;timestamp;pressure;altitude;pressure_sealevel;temperature;humidity
1371;BME280;14306;49.942;11.570;2023-02-10T00:01:33;99303.53;;;-4.64;82.83
1371;BME280;14306;49.942;11.570;2023-02-10T00:04:01;99295.47;;;-4.63;83.60
1371;BME280;14306;49.942;11.570;2023-02-10T00:06:30;99287.66;;;-4.80;83.05
1371;BME280;14306;49.942;11.570;2023-02-10T00:08:59;99310.59;;;-4.81;83.12
1371;BME280;14306;49.942;11.570;2023-02-10T00:11:29;99307.38;;;-5.00;83.26
1371;BME280;14306;49.942;11.570;2023-02-10T00:14:17;99321.63;;;-4.85;83.66
1371;BME280;14306;49.942;11.570;2023-02-10T00:16:48;99309.13;;;-4.75;83.11
1371;BME280;14306;49.942;11.570;2023-02-10T00:19:16;99311.75;;;-4.75;83.32
1371;BME280;14306;49.942;11.570;2023-02-10T00:21:45;99309.44;;;-4.70;83.18
1371;BME280;14306;49.942;11.570;2023-02-10T00:24:12;99299.69;;;-4.78;82.93
1371;BME280;14306;49.942;11.570;2023-02-10T00:26:43;99297.72;;;-4.76;82.89
1371;BME280;14306;49.942;11.570;2023-02-10T00:29:11;99302.78;;;-4.90;82.66
1371;BME280;14306;49.942;11.570;2023-02-10T00:31:39;99294.06;;;-4.83;83.60
1371;BME280;14306;49.942;11.570;2023-02-10T00:34:10;99301.16;;;-4.83;83.84
1371;BME280;14306;49.942;11.570;2023-02-10T00:36:38;99301.22;;;-4.67;84.07
1371;BME280;14306;49.942;11.570;2023-02-10T00:39:06;99295.94;;;-4.67;83.56
1371;BME280;14306;49.942;11.570;2023-02-10T00:41:35;99310.16;;;-4.60;83.88
1371;BME280;14306;49.942;11.570;2023-02-10T00:44:05;99307.66;;;-4.62;83.86
1371;BME280;14306;49.942;11.570;2023-02-10T00:46:33;99315.88;;;-4.73;83.29
1371;BME280;14306;49.942;11.570;2023-02-10T00:49:01;99308.28;;;-4.76;83.78
1371;BME280;14306;49.942;11.570;2023-02-10T00:51:29;99322.78;;;-4.80;83.40
1371;BME280;14306;49.942;11.570;2023-02-10T00:53:58;99329.38;;;-4.84;83.66
1371;BME280;14306;49.942;11.570;2023-02-10T00:56:27;99326.22;;;-4.95;83.23
1371;BME280;14306;49.942;11.570;2023-02-10T00:58:55;99329.16;;;-4.98;83.25
1371;BME280;14306;49.942;11.570;2023-02-10T01:01:24;99334.75;;;-5.01;82.84
1371;BME280;14306;49.942;11.570;2023-02-10T01:03:52;99318.84;;;-5.17;83.05
1371;BME280;14306;49.942;11.570;2023-02-10T01:06:21;99327.16;;;-5.04;83.33
1371;BME280;14306;49.942;11.570;2023-02-10T01:08:49;99333.22;;;-5.12;82.93
1371;BME280;14306;49.942;11.570;2023-02-10T01:11:17;99338.94;;;-5.24;83.25
1371;BME280;14306;49.942;11.570;2023-02-10T01:13:45;99341.22;;;-5.29;83.78
1371;BME280;14306;49.942;11.570;2023-02-10T01:16:15;99349.03;;;-5.20;84.35
1371;BME280;14306;49.942;11.570;2023-02-10T01:18:45;99348.81;;;-5.26;83.90
1371;BME280;14306;49.942;11.570;2023-02-10T01:21:15;99349.25;;;-5.05;83.77
1371;BME280;14306;49.942;11.570;2023-02-10T01:23:46;99348.34;;;-5.22;82.90
1371;BME280;14306;49.942;11.570;2023-02-10T01:26:14;99349.03;;;-5.20;83.17
1371;BME280;14306;49.942;11.570;2023-02-10T01:28:43;99350.19;;;-5.22;83.23
1371;BME280;14306;49.942;11.570;2023-02-10T01:31:13;99337.41;;;-5.35;83.19
1371;BME280;14306;49.942;11.570;2023-02-10T01:33:42;99360.72;;;-5.22;83.53
1371;BME280;14306;49.942;11.570;2023-02-10T01:36:14;99362.84;;;-5.26;83.26
1371;BME280;14306;49.942;11.570;2023-02-10T01:38:43;99351.88;;;-5.13;83.56
1371;BME280;14306;49.942;11.570;2023-02-10T01:41:13;99369.66;;;-5.15;84.17
1371;BME280;14306;49.942;11.570;2023-02-10T01:43:58;99350.94;;;-5.30;83.87
1371;BME280;14306;49.942;11.570;2023-02-10T01:46:27;99361.75;;;-5.15;84.34
1371;BME280;14306;49.942;11.570;2023-02-10T01:48:57;99348.66;;;-5.25;84.26
1371;BME280;14306;49.942;11.570;2023-02-10T01:51:35;99372.84;;;-5.12;83.86
1371;BME280;14306;49.942;11.570;2023-02-10T01:54:06;99362.94;;;-5.10;84.07
1371;BME280;14306;49.942;11.570;2023-02-10T01:56:39;99359.31;;;-5.09;84.01
1371;BME280;14306;49.942;11.570;2023-02-10T01:59:10;99356.69;;;-5.09;83.88
1371;BME280;14306;49.942;11.570;2023-02-10T02:01:38;99358.28;;;-5.16;83.94
1371;BME280;14306;49.942;11.570;2023-02-10T02:04:07;99362.28;;;-5.12;84.04
1371;BME280;14306;49.942;11.570;2023-02-10T02:06:37;99368.31;;;-5.19;84.14
1371;BME280;14306;49.942;11.570;2023-02-10T02:09:06;99359.25;;;-5.17;83.85
1371;BME280;14306;49.942;11.570;2023-02-10T02:11:40;99354.47;;;-5.21;84.39
1371;BME280;14306;49.942;11.570;2023-02-10T02:14:20;99365.03;;;-5.21;84.17
1371;BME280;14306;49.942;11.570;2023-02-10T02:17:01;99359.09;;;-5.15;83.64
1371;BME280;14306;49.942;11.570;2023-02-10T02:20:01;99349.44;;;-5.32;83.89
1371;BME280;14306;49.942;11.570;2023-02-10T02:23:24;99372.28;;;-5.15;82.92
1371;BME280;14306;49.942;11.570;2023-02-10T02:26:21;99367.72;;;-5.39;83.81
1371;BME280;14306;49.942;11.570;2023-02-10T02:29:07;99371.22;;;-5.30;84.02
1371;BME280;14306;49.942;11.570;2023-02-10T02:31:57;99369.81;;;-5.42;83.91
1371;BME280;14306;49.942;11.570;2023-02-10T02:34:32;99370.56;;;-5.32;83.66
1371;BME280;14306;49.942;11.570;2023-02-10T02:37:08;99373.41;;;-5.51;82.70
1371;BME280;14306;49.942;11.570;2023-02-10T02:39:36;99368.47;;;-5.72;83.64
1371;BME280;14306;49.942;11.570;2023-02-10T02:42:14;99367.16;;;-5.68;83.46
1371;BME280;14306;49.942;11.570;2023-02-10T02:44:46;99362.00;;;-5.52;83.39
1371;BME280;14306;49.942;11.570;2023-02-10T02:47:29;99362.84;;;-5.51;83.64
1371;BME280;14306;49.942;11.570;2023-02-10T02:50:11;99359.25;;;-5.68;83.51
1371;BME280;14306;49.942;11.570;2023-02-10T02:52:53;99372.66;;;-5.61;83.78
1371;BME280;14306;49.942;11.570;2023-02-10T02:55:29;99352.34;;;-5.69;84.05
1371;BME280;14306;49.942;11.570;2023-02-10T02:58:03;99374.34;;;-5.60;84.69
1371;BME280;14306;49.942;11.570;2023-02-10T03:00:36;99363.88;;;-5.44;84.11
1371;BME280;14306;49.942;11.570;2023-02-10T03:03:07;99365.03;;;-5.47;84.60
1371;BME280;14306;49.942;11.570;2023-02-10T03:05:36;99372.63;;;-5.44;83.91
1371;BME280;14306;49.942;11.570;2023-02-10T03:08:04;99361.03;;;-5.51;83.93
1371;BME280;14306;49.942;11.570;2023-02-10T03:10:32;99372.56;;;-5.52;84.05
1371;BME280;14306;49.942;11.570;2023-02-10T03:13:00;99366.47;;;-5.52;84.25
1371;BME280;14306;49.942;11.570;2023-02-10T03:15:29;99364.97;;;-5.55;83.29
1371;BME280;14306;49.942;11.570;2023-02-10T03:17:57;99372.81;;;-5.63;83.38
1371;BME280;14306;49.942;11.570;2023-02-10T03:20:26;99367.84;;;-5.66;84.55
1371;BME280;14306;49.942;11.570;2023-02-10T03:22:55;99373.22;;;-5.75;84.70
1371;BME280;14306;49.942;11.570;2023-02-10T03:25:22;99374.19;;;-5.76;84.23
1371;BME280;14306;49.942;11.570;2023-02-10T03:27:50;99384.88;;;-5.60;84.95
1371;BME280;14306;49.942;11.570;2023-02-10T03:30:19;99380.34;;;-5.68;83.96
1371;BME280;14306;49.942;11.570;2023-02-10T03:32:47;99376.56;;;-5.65;84.48
1371;BME280;14306;49.942;11.570;2023-02-10T03:35:18;99374.94;;;-5.66;84.04
1371;BME280;14306;49.942;11.570;2023-02-10T03:37:47;99378.72;;;-5.69;84.00
1371;BME280;14306;49.942;11.570;2023-02-10T03:40:15;99388.41;;;-5.69;83.29
1371;BME280;14306;49.942;11.570;2023-02-10T03:42:43;99379.97;;;-5.81;83.56
1371;BME280;14306;49.942;11.570;2023-02-10T03:45:11;99383.91;;;-5.77;84.17
1371;BME280;14306;49.942;11.570;2023-02-10T03:47:39;99378.47;;;-5.83;84.45
1371;BME280;14306;49.942;11.570;2023-02-10T03:50:07;99369.03;;;-5.86;84.01
1371;BME280;14306;49.942;11.570;2023-02-10T03:52:36;99390.97;;;-5.85;84.70
1371;BME280;14306;49.942;11.570;2023-02-10T03:55:06;99390.53;;;-5.73;83.90
1371;BME280;14306;49.942;11.570;2023-02-10T03:57:34;99387.38;;;-5.76;83.94
1371;BME280;14306;49.942;11.570;2023-02-10T04:00:04;99389.00;;;-5.83;83.70
1371;BME280;14306;49.942;11.570;2023-02-10T04:02:32;99390.50;;;-5.81;84.08
1371;BME280;14306;49.942;11.570;2023-02-10T04:05:00;99389.75;;;-5.91;83.54
1371;BME280;14306;49.942;11.570;2023-02-10T04:07:28;99395.66;;;-5.97;83.45
1371;BME280;14306;49.942;11.570;2023-02-10T04:09:56;99399.38;;;-5.99;83.65
1371;BME280;14306;49.942;11.570;2023-02-10T04:12:26;99383.44;;;-6.15;83.19
1371;BME280;14306;49.942;11.570;2023-02-10T04:14:54;99395.94;;;-6.17;82.70
1371;BME280;14306;49.942;11.570;2023-02-10T04:17:22;99405.06;;;-6.12;83.08
1371;BME280;14306;49.942;11.570;2023-02-10T04:19:50;99406.78;;;-6.03;83.07
1371;BME280;14306;49.942;11.570;2023-02-10T04:22:18;99408.78;;;-6.14;84.19
1371;BME280;14306;49.942;11.570;2023-02-10T04:24:46;99406.00;;;-6.13;83.40
1371;BME280;14306;49.942;11.570;2023-02-10T04:27:14;99408.66;;;-6.13;84.38
1371;BME280;14306;49.942;11.570;2023-02-10T04:29:44;99417.09;;;-6.27;83.38
1371;BME280;14306;49.942;11.570;2023-02-10T04:32:12;99418.13;;;-6.20;83.98
1371;BME280;14306;49.942;11.570;2023-02-10T04:34:40;99418.91;;;-6.10;83.36
1371;BME280;14306;49.942;11.570;2023-02-10T04:37:08;99422.88;;;-6.06;83.71
1371;BME280;14306;49.942;11.570;2023-02-10T04:39:36;99424.59;;;-6.14;82.97
1371;BME280;14306;49.942;11.570;2023-02-10T04:42:04;99429.00;;;-6.05;82.96
1371;BME280;14306;49.942;11.570;2023-02-10T04:44:33;99430.78;;;-6.06;83.16
1371;BME280;14306;49.942;11.570;2023-02-10T04:47:02;99437.19;;;-6.08;83.38
1371;BME280;14306;49.942;11.570;2023-02-10T04:49:30;99442.03;;;-6.04;82.38
1371;BME280;14306;49.942;11.570;2023-02-10T04:51:59;99435.63;;;-6.01;83.22
1371;BME280;14306;49.942;11.570;2023-02-10T04:54:27;99439.06;;;-6.01;82.85
1371;BME280;14306;49.942;11.570;2023-02-10T04:56:55;99437.00;;;-5.97;83.60
1371;BME280;14306;49.942;11.570;2023-02-10T04:59:23;99443.09;;;-5.97;83.06
1371;BME280;14306;49.942;11.570;2023-02-10T05:01:51;99444.97;;;-5.89;83.17
1371;BME280;14306;49.942;11.570;2023-02-10T05:04:20;99442.84;;;-5.86;83.24
1371;BME280;14306;49.942;11.570;2023-02-10T05:06:49;99446.50;;;-5.79;82.98
1371;BME280;14306;49.942;11.570;2023-02-10T05:09:17;99447.50;;;-5.80;82.95
1371;BME280;14306;49.942;11.570;2023-02-10T05:11:45;99446.59;;;-5.71;82.80
1371;BME280;14306;49.942;11.570;2023-02-10T05:14:14;99458.34;;;-5.65;82.84
1371;BME280;14306;49.942;11.570;2023-02-10T05:16:42;99469.44;;;-5.44;83.48
1371;BME280;14306;49.942;11.570;2023-02-10T05:19:10;99477.28;;;-5.09;83.43
1371;BME280;14306;49.942;11.570;2023-02-10T05:25:21;99475.00;;;-4.79;83.05
1371;BME280;14306;49.942;11.570;2023-02-10T05:27:49;99470.84;;;-4.81;83.14
1371;BME280;14306;49.942;11.570;2023-02-10T05:30:17;99481.22;;;-4.62;83.26
1371;BME280;14306;49.942;11.570;2023-02-10T05:32:45;99473.31;;;-4.54;82.66
1371;BME280;14306;49.942;11.570;2023-02-10T05:35:14;99472.41;;;-4.71;82.53
1371;BME280;14306;49.942;11.570;2023-02-10T05:37:43;99473.06;;;-4.35;82.01
1371;BME280;14306;49.942;11.570;2023-02-10T05:40:11;99467.56;;;-4.50;82.34
1371;BME280;14306;49.942;11.570;2023-02-10T05:42:41;99473.00;;;-4.51;81.71
1371;BME280;14306;49.942;11.570;2023-02-10T05:45:09;99476.03;;;-4.72;81.90
1371;BME280;14306;49.942;11.570;2023-02-10T05:47:37;99485.31;;;-4.68;81.85
1371;BME280;14306;49.942;11.570;2023-02-10T05:50:06;99482.16;;;-4.71;81.64
1371;BME280;14306;49.942;11.570;2023-02-10T05:52:33;99492.81;;;-4.55;81.58
1371;BME280;14306;49.942;11.570;2023-02-10T05:55:02;99491.28;;;-4.32;81.64
1371;BME280;14306;49.942;11.570;2023-02-10T05:57:30;99492.44;;;-4.27;81.66
1371;BME280;14306;49.942;11.570;2023-02-10T06:00:00;99495.53;;;-4.39;82.09
1371;BME280;14306;49.942;11.570;2023-02-10T06:02:28;99493.72;;;-4.39;82.59
1371;BME280;14306;49.942;11.570;2023-02-10T06:04:56;99491.16;;;-4.23;82.42
1371;BME280;14306;49.942;11.570;2023-02-10T06:07:24;99492.56;;;-4.36;82.33
1371;BME280;14306;49.942;11.570;2023-02-10T06:09:53;99494.09;;;-4.26;82.02
1371;BME280;14306;49.942;11.570;2023-02-10T06:12:21;99499.97;;;-4.06;81.65
1371;BME280;14306;49.942;11.570;2023-02-10T06:14:50;99495.31;;;-4.12;81.51
1371;BME280;14306;49.942;11.570;2023-02-10T06:17:20;99498.41;;;-3.83;81.37
1371;BME280;14306;49.942;11.570;2023-02-10T06:19:48;99498.53;;;-3.92;80.61
1371;BME280;14306;49.942;11.570;2023-02-10T06:22:17;99501.69;;;-3.81;81.43
1371;BME280;14306;49.942;11.570;2023-02-10T06:24:45;99513.59;;;-3.77;81.58
1371;BME280;14306;49.942;11.570;2023-02-10T06:27:13;99516.19;;;-3.35;81.24
1371;BME280;14306;49.942;11.570;2023-02-10T06:29:44;99518.66;;;-3.50;80.81
1371;BME280;14306;49.942;11.570;2023-02-10T06:32:16;99516.66;;;-3.56;80.97
1371;BME280;14306;49.942;11.570;2023-02-10T06:34:47;99522.13;;;-3.41;81.13
1371;BME280;14306;49.942;11.570;2023-02-10T06:37:16;99525.91;;;-3.52;81.25
1371;BME280;14306;49.942;11.570;2023-02-10T06:39:45;99526.91;;;-3.61;80.45
1371;BME280;14306;49.942;11.570;2023-02-10T06:42:13;99524.94;;;-3.35;80.51
1371;BME280;14306;49.942;11.570;2023-02-10T06:44:41;99535.06;;;-3.30;80.73
1371;BME280;14306;49.942;11.570;2023-02-10T06:47:10;99534.72;;;-3.27;80.21
1371;BME280;14306;49.942;11.570;2023-02-10T06:49:38;99536.22;;;-2.93;80.07
1371;BME280;14306;49.942;11.570;2023-02-10T06:52:08;99547.81;;;-2.78;79.85
1371;BME280;14306;49.942;11.570;2023-02-10T06:54:43;99543.34;;;-2.85;80.24
1371;BME280;14306;49.942;11.570;2023-02-10T06:57:11;99541.19;;;-2.98;80.47
1371;BME280;14306;49.942;11.570;2023-02-10T06:59:39;99542.34;;;-3.16;80.41
1371;BME280;14306;49.942;11.570;2023-02-10T07:02:08;99547.66;;;-3.08;80.68
1371;BME280;14306;49.942;11.570;2023-02-10T07:04:36;99541.03;;;-3.04;80.92
1371;BME280;14306;49.942;11.570;2023-02-10T07:07:05;99538.00;;;-2.53;79.99
1371;BME280;14306;49.942;11.570;2023-02-10T07:09:35;99534.53;;;-2.46;79.91
1371;BME280;14306;49.942;11.570;2023-02-10T07:12:04;99544.22;;;-2.22;79.86
1371;BME280;14306;49.942;11.570;2023-02-10T07:14:33;99529.84;;;-2.36;78.77
1371;BME280;14306;49.942;11.570;2023-02-10T07:17:02;99543.63;;;-2.40;80.29
1371;BME280;14306;49.942;11.570;2023-02-10T07:19:30;99534.16;;;-2.27;79.32
1371;BME280;14306;49.942;11.570;2023-02-10T07:21:59;99542.78;;;-2.33;79.16
1371;BME280;14306;49.942;11.570;2023-02-10T07:24:31;99541.50;;;-2.53;79.20
1371;BME280;14306;49.942;11.570;2023-02-10T07:27:02;99533.78;;;-2.16;79.58
1371;BME280;14306;49.942;11.570;2023-02-10T07:29:31;99540.19;;;-1.94;78.42
1371;BME280;14306;49.942;11.570;2023-02-10T07:32:00;99549.72;;;-2.16;78.88
1371;BME280;14306;49.942;11.570;2023-02-10T07:34:29;99542.50;;;-1.99;78.93
1371;BME280;14306;49.942;11.570;2023-02-10T07:37:02;99549.28;;;-1.89;78.74
1371;BME280;14306;49.942;11.570;2023-02-10T07:39:30;99554.88;;;-1.84;77.96
1371;BME280;14306;49.942;11.570;2023-02-10T07:42:05;99556.13;;;-1.64;77.30
1371;BME280;14306;49.942;11.570;2023-02-10T07:44:33;99560.41;;;-1.55;78.02
1371;BME280;14306;49.942;11.570;2023-02-10T07:47:01;99559.72;;;-1.95;78.06
1371;BME280;14306;49.942;11.570;2023-02-10T07:49:31;99554.50;;;-1.42;78.70
1371;BME280;14306;49.942;11.570;2023-02-10T07:51:59;99549.25;;;-1.50;78.43
1371;BME280;14306;49.942;11.570;2023-02-10T07:54:28;99555.16;;;-1.40;77.40
1371;BME280;14306;49.942;11.570;2023-02-10T07:56:57;99550.41;;;-1.22;79.64
1371;BME280;14306;49.942;11.570;2023-02-10T07:59:27;99564.28;;;-1.12;78.11
1371;BME280;14306;49.942;11.570;2023-02-10T08:01:56;99560.84;;;-1.21;77.96
1371;BME280;14306;49.942;11.570;2023-02-10T08:04:24;99555.47;;;-1.35;78.58
1371;BME280;14306;49.942;11.570;2023-02-10T08:06:55;99552.22;;;-1.00;78.11
1371;BME280;14306;49.942;11.570;2023-02-10T08:09:23;99552.34;;;-1.16;77.47
1371;BME280;14306;49.942;11.570;2023-02-10T08:11:52;99558.56;;;-1.01;77.89
1371;BME280;14306;49.942;11.570;2023-02-10T08:14:20;99554.25;;;-0.65;77.77
1371;BME280;14306;49.942;11.570;2023-02-10T08:16:52;99547.09;;;-1.02;76.68
1371;BME280;14306;49.942;11.570;2023-02-10T08:19:23;99552.16;;;-0.70;77.86
1371;BME280;14306;49.942;11.570;2023-02-10T08:21:52;99554.47;;;-0.67;77.94
1371;BME280;14306;49.942;11.570;2023-02-10T08:24:21;99557.56;;;-0.26;77.28
1371;BME280;14306;49.942;11.570;2023-02-10T08:26:50;99565.16;;;-0.38;76.86
1371;BME280;14306;49.942;11.570;2023-02-10T08:29:18;99572.44;;;-0.17;76.86
1371;BME280;14306;49.942;11.570;2023-02-10T08:31:48;99579.53;;;-0.10;76.42
1371;BME280;14306;49.942;11.570;2023-02-10T08:34:19;99583.25;;;-0.33;76.80
1371;BME280;14306;49.942;11.570;2023-02-10T08:36:48;99575.66;;;-0.07;77.93
1371;BME280;14306;49.942;11.570;2023-02-10T08:39:17;99576.81;;;0.34;75.58
1371;BME280;14306;49.942;11.570;2023-02-10T08:41:45;99580.16;;;0.36;76.48
1371;BME280;14306;49.942;11.570;2023-02-10T08:44:15;99589.22;;;0.56;75.94
1371;BME280;14306;49.942;11.570;2023-02-10T08:46:43;99589.47;;;0.61;73.68
1371;BME280;14306;49.942;11.570;2023-02-10T08:49:11;99594.63;;;0.98;75.06
1371;BME280;14306;49.942;11.570;2023-02-10T08:51:44;99595.13;;;0.87;74.80
1371;BME280;14306;49.942;11.570;2023-02-10T08:54:12;99603.47;;;1.20;73.18
1371;BME280;14306;49.942;11.570;2023-02-10T08:56:41;99606.41;;;1.46;72.18
1371;BME280;14306;49.942;11.570;2023-02-10T08:59:09;99595.47;;;1.20;73.48
1371;BME280;14306;49.942;11.570;2023-02-10T09:01:37;99609.06;;;1.67;71.00
1371;BME280;14306;49.942;11.570;2023-02-10T09:04:06;99596.53;;;1.25;70.33
1371;BME280;14306;49.942;11.570;2023-02-10T09:06:37;99601.94;;;1.53;73.17
1371;BME280;14306;49.942;11.570;2023-02-10T09:09:12;99607.28;;;1.32;74.39
1371;BME280;14306;49.942;11.570;2023-02-10T09:11:41;99603.53;;;1.26;73.29
1371;BME280;14306;49.942;11.570;2023-02-10T09:14:10;99606.56;;;1.02;72.61
1371;BME280;14306;49.942;11.570;2023-02-10T09:16:38;99595.28;;;1.42;73.63
1371;BME280;14306;49.942;11.570;2023-02-10T09:19:08;99602.88;;;1.03;73.78
1371;BME280;14306;49.942;11.570;2023-02-10T09:21:37;99611.13;;;1.71;71.57
1371;BME280;14306;49.942;11.570;2023-02-10T09:24:15;99609.97;;;2.08;70.68
1371;BME280;14306;49.942;11.570;2023-02-10T09:26:45;99601.78;;;2.50;68.54
1371;BME280;14306;49.942;11.570;2023-02-10T09:29:14;99603.16;;;2.33;68.88
1371;BME280;14306;49.942;11.570;2023-02-10T09:31:43;99599.94;;;2.50;68.73
1371;BME280;14306;49.942;11.570;2023-02-10T09:34:12;99602.91;;;2.28;68.73
1371;BME280;14306;49.942;11.570;2023-02-10T09:36:40;99600.94;;;2.90;69.93
1371;BME280;14306;49.942;11.570;2023-02-10T09:39:09;99611.84;;;2.95;68.51
1371;BME280;14306;49.942;11.570;2023-02-10T09:41:45;99615.91;;;3.64;66.75
1371;BME280;14306;49.942;11.570;2023-02-10T09:44:17;99615.88;;;3.31;64.56
1371;BME280;14306;49.942;11.570;2023-02-10T09:47:08;99618.28;;;3.07;66.55
1371;BME280;14306;49.942;11.570;2023-02-10T09:54:49;99625.13;;;3.29;65.78
1371;BME280;14306;49.942;11.570;2023-02-10T10:02:24;99632.59;;;3.59;66.98
1371;BME280;14306;49.942;11.570;2023-02-10T10:05:05;99625.59;;;3.58;65.51
1371;BME280;14306;49.942;11.570;2023-02-10T10:07:45;99615.88;;;3.38;67.35
1371;BME280;14306;49.942;11.570;2023-02-10T10:10:23;99623.50;;;3.41;67.08
1371;BME280;14306;49.942;11.570;2023-02-10T10:12:53;99620.75;;;2.55;68.74
1371;BME280;14306;49.942;11.570;2023-02-10T10:15:25;99628.47;;;3.57;65.13
1371;BME280;14306;49.942;11.570;2023-02-10T10:18:07;99647.25;;;4.09;62.91
1371;BME280;14306;49.942;11.570;2023-02-10T10:20:47;99646.84;;;4.12;63.48
1371;BME280;14306;49.942;11.570;2023-02-10T10:23:33;99634.88;;;3.56;66.57
1371;BME280;14306;49.942;11.570;2023-02-10T10:26:24;99634.88;;;3.69;66.04
1371;BME280;14306;49.942;11.570;2023-02-10T10:29:14;99660.69;;;4.99;60.89
1371;BME280;14306;49.942;11.570;2023-02-10T10:31:49;99659.84;;;4.98;59.95
1371;BME280;14306;49.942;11.570;2023-02-10T10:34:25;99639.63;;;4.26;64.91
1371;BME280;14306;49.942;11.570;2023-02-10T10:36:58;99653.72;;;4.78;64.93
1371;BME280;14306;49.942;11.570;2023-02-10T10:39:31;99633.66;;;4.10;64.85
1371;BME280;14306;49.942;11.570;2023-02-10T10:42:16;99615.09;;;3.63;65.06
1371;BME280;14306;49.942;11.570;2023-02-10T10:44:48;99634.00;;;4.40;64.08
1371;BME280;14306;49.942;11.570;2023-02-10T10:47:20;99623.97;;;3.90;65.92
1371;BME280;14306;49.942;11.570;2023-02-10T10:49:52;99633.63;;;4.17;64.69
1371;BME280;14306;49.942;11.570;2023-02-10T10:52:26;99627.66;;;4.28;63.40
1371;BME280;14306;49.942;11.570;2023-02-10T10:55:02;99628.63;;;4.60;63.07
1371;BME280;14306;49.942;11.570;2023-02-10T10:57:34;99641.41;;;5.15;59.56
1371;BME280;14306;49.942;11.570;2023-02-10T11:00:15;99621.13;;;4.68;62.13
1371;BME280;14306;49.942;11.570;2023-02-10T11:02:57;99625.66;;;5.18;60.60
1371;BME280;14306;49.942;11.570;2023-02-10T11:05:29;99630.09;;;5.37;58.29
1371;BME280;14306;49.942;11.570;2023-02-10T11:08:00;99632.78;;;5.37;58.59
1371;BME280;14306;49.942;11.570;2023-02-10T11:10:33;99612.06;;;5.82;58.23
1371;BME280;14306;49.942;11.570;2023-02-10T11:13:05;99644.38;;;6.00;59.73
1371;BME280;14306;49.942;11.570;2023-02-10T11:15:38;99635.69;;;5.73;58.19
1371;BME280;14306;49.942;11.570;2023-02-10T11:18:16;99624.53;;;5.01;59.57
1371;BME280;14306;49.942;11.570;2023-02-10T11:20:53;99633.53;;;5.57;57.82
1371;BME280;14306;49.942;11.570;2023-02-10T11:23:23;99622.16;;;5.55;58.81
1371;BME280;14306;49.942;11.570;2023-02-10T11:25:59;99639.31;;;5.54;57.22
1371;BME280;14306;49.942;11.570;2023-02-10T11:28:31;99638.22;;;5.62;58.00
1371;BME280;14306;49.942;11.570;2023-02-10T11:31:01;99640.75;;;5.88;56.52
1371;BME280;14306;49.942;11.570;2023-02-10T11:33:33;99624.66;;;4.69;59.67
1371;BME280;14306;49.942;11.570;2023-02-10T11:36:05;99638.56;;;6.03;58.35
1371;BME280;14306;49.942;11.570;2023-02-10T11:38:35;99629.41;;;5.79;57.20
1371;BME280;14306;49.942;11.570;2023-02-10T11:41:05;99613.22;;;4.86;59.11
1371;BME280;14306;49.942;11.570;2023-02-10T11:43:41;99625.78;;;5.36;59.17
1371;BME280;14306;49.942;11.570;2023-02-10T11:46:18;99619.56;;;5.73;57.25
1371;BME280;14306;49.942;11.570;2023-02-10T11:48:53;99624.28;;;6.27;55.27
1371;BME280;14306;49.942;11.570;2023-02-10T11:51:25;99620.84;;;6.38;56.21
1371;BME280;14306;49.942;11.570;2023-02-10T11:53:55;99613.00;;;5.94;56.40
1371;BME280;14306;49.942;11.570;2023-02-10T11:56:30;99602.13;;;5.20;57.34
1371;BME280;14306;49.942;11.570;2023-02-10T11:59:27;99631.13;;;6.65;54.89
1371;BME280;14306;49.942;11.570;2023-02-10T12:02:03;99626.53;;;6.05;55.01
1371;BME280;14306;49.942;11.570;2023-02-10T12:04:52;99612.13;;;5.69;56.69
1371;BME280;14306;49.942;11.570;2023-02-10T12:07:32;99612.44;;;5.54;57.12
1371;BME280;14306;49.942;11.570;2023-02-10T12:10:15;99603.13;;;5.26;58.23
1371;BME280;14306;49.942;11.570;2023-02-10T12:12:53;99614.63;;;5.39;57.44
1371;BME280;14306;49.942;11.570;2023-02-10T12:15:37;99617.09;;;6.21;55.49
1371;BME280;14306;49.942;11.570;2023-02-10T12:18:20;99612.00;;;6.13;54.78
1371;BME280;14306;49.942;11.570;2023-02-10T12:21:01;99601.19;;;6.19;53.07
1371;BME280;14306;49.942;11.570;2023-02-10T12:23:58;99621.56;;;6.69;54.83
1371;BME280;14306;49.942;11.570;2023-02-10T12:26:35;99636.47;;;7.37;52.33
1371;BME280;14306;49.942;11.570;2023-02-10T12:29:16;99622.38;;;6.88;52.92
1371;BME280;14306;49.942;11.570;2023-02-10T12:31:59;99611.59;;;6.34;54.52
1371;BME280;14306;49.942;11.570;2023-02-10T12:34:48;99615.34;;;6.87;52.91
1371;BME280;14306;49.942;11.570;2023-02-10T12:37:32;99609.50;;;6.54;53.04
1371;BME280;14306;49.942;11.570;2023-02-10T12:44:15;99603.66;;;6.39;52.76
1371;BME280;14306;49.942;11.570;2023-02-10T12:46:59;99636.13;;;7.16;51.58
1371;BME280;14306;49.942;11.570;2023-02-10T12:49:41;99621.53;;;7.05;52.26
1371;BME280;14306;49.942;11.570;2023-02-10T12:52:16;99617.84;;;7.18;51.63
1371;BME280;14306;49.942;11.570;2023-02-10T12:54:49;99591.03;;;5.97;54.48
1371;BME280;14306;49.942;11.570;2023-02-10T12:57:24;99607.06;;;6.52;54.22
1371;BME280;14306;49.942;11.570;2023-02-10T12:59:59;99602.72;;;6.51;53.30
1371;BME280;14306;49.942;11.570;2023-02-10T13:02:40;99615.53;;;7.21;51.40
1371;BME280;14306;49.942;11.570;2023-02-10T13:05:12;99604.53;;;6.57;53.14
1371;BME280;14306;49.942;11.570;2023-02-10T13:07:47;99596.81;;;6.61;54.17
1371;BME280;14306;49.942;11.570;2023-02-10T13:10:22;99590.91;;;6.34;54.99
1371;BME280;14306;49.942;11.570;2023-02-10T13:12:59;99594.19;;;6.54;53.94
1371;BME280;14306;49.942;11.570;2023-02-10T13:15:32;99592.91;;;6.57;53.75
1371;BME280;14306;49.942;11.570;2023-02-10T13:18:16;99601.34;;;6.78;54.07
1371;BME280;14306;49.942;11.570;2023-02-10T13:20:51;99588.50;;;6.62;53.71
1371;BME280;14306;49.942;11.570;2023-02-10T13:23:29;99587.53;;;6.57;54.21
1371;BME280;14306;49.942;11.570;2023-02-10T13:26:29;99586.22;;;6.66;54.53
1371;BME280;14306;49.942;11.570;2023-02-10T13:29:10;99587.25;;;6.47;54.96
1371;BME280;14306;49.942;11.570;2023-02-10T13:31:53;99585.41;;;6.23;55.41
1371;BME280;14306;49.942;11.570;2023-02-10T13:34:27;99586.31;;;6.35;55.24
1371;BME280;14306;49.942;11.570;2023-02-10T13:37:07;99586.59;;;6.99;53.38
1371;BME280;14306;49.942;11.570;2023-02-10T13:39:38;99572.56;;;6.79;55.36
1371;BME280;14306;49.942;11.570;2023-02-10T13:42:13;99583.34;;;6.79;54.87
1371;BME280;14306;49.942;11.570;2023-02-10T13:44:43;99583.66;;;6.89;54.76
1371;BME280;14306;49.942;11.570;2023-02-10T13:47:22;99590.13;;;7.29;53.04
1371;BME280;14306;49.942;11.570;2023-02-10T13:49:57;99580.78;;;7.02;53.68